Time;durP1;ratioP1;P1;durP2;ratioP2;P2;SDS_P1;SDS_P2;PMS_P1;PMS_P2;Temp;Humidity;BMP_temperature;BMP_pressure;BME280_temperature;BME280_humidity;BME280_pressure;Samples;Min_cycle;Max_cycle;Signal;HPM_P1;HPM_P2
2022/01/09 00:01:47;;;;;;;9.13;6.10;;;4.80;99.90;;;;;;5015379;28;20091;-79
2022/01/09 00:04:13;;;;;;;10.32;6.68;;;4.80;99.90;;;;;;5015543;28;20041;-79
2022/01/09 00:06:38;;;;;;;9.20;6.18;;;4.80;99.90;;;;;;5033152;28;20050;-79
2022/01/09 00:09:04;;;;;;;9.25;6.63;;;4.70;99.90;;;;;;5015241;28;20073;-79
2022/01/09 00:11:29;;;;;;;10.65;6.45;;;4.70;99.90;;;;;;5033240;28;20057;-79
2022/01/09 00:13:56;;;;;;;12.05;7.07;;;4.70;99.90;;;;;;5015383;28;20128;-82
2022/01/09 00:16:23;;;;;;;8.75;5.75;;;4.70;99.90;;;;;;5015356;28;20041;-81
2022/01/09 00:18:50;;;;;;;9.82;6.57;;;4.70;99.90;;;;;;5015122;28;20129;-81
2022/01/09 00:21:16;;;;;;;10.02;6.55;;;4.70;99.90;;;;;;5033058;28;20159;-82
2022/01/09 00:23:43;;;;;;;12.32;7.18;;;4.70;99.90;;;;;;5033125;28;20037;-81
2022/01/09 00:26:09;;;;;;;12.07;6.55;;;4.70;99.90;;;;;;5016009;28;20114;-81
2022/01/09 00:28:35;;;;;;;10.75;6.40;;;4.70;99.90;;;;;;5018735;28;20041;-81
2022/01/09 00:31:01;;;;;;;10.50;7.05;;;4.70;99.90;;;;;;5036412;28;20495;-81
2022/01/09 00:33:27;;;;;;;13.57;7.85;;;4.70;99.90;;;;;;5019095;28;20046;-81
2022/01/09 00:35:52;;;;;;;9.30;6.03;;;4.70;99.90;;;;;;5018963;28;20496;-81
2022/01/09 00:38:18;;;;;;;9.20;6.38;;;4.70;99.90;;;;;;5036449;28;20366;-81
2022/01/09 00:40:44;;;;;;;10.25;6.47;;;4.70;99.90;;;;;;5036250;28;20037;-81
2022/01/09 00:43:10;;;;;;;11.68;6.68;;;4.70;99.90;;;;;;5018516;28;20077;-82
2022/01/09 00:45:41;;;;;;;10.43;6.65;;;4.70;99.90;;;;;;5018518;28;20073;-82
2022/01/09 00:48:09;;;;;;;10.77;7.22;;;4.70;99.90;;;;;;5036223;28;20064;-82
2022/01/09 00:50:40;;;;;;;10.57;7.43;;;4.70;99.90;;;;;;5018125;28;20053;-82
2022/01/09 00:53:06;;;;;;;11.23;7.07;;;4.70;99.90;;;;;;5018345;28;20057;-81
2022/01/09 00:55:32;;;;;;;11.93;7.38;;;4.70;99.90;;;;;;5036156;28;20033;-81
2022/01/09 00:57:58;;;;;;;11.63;7.85;;;4.70;99.90;;;;;;5018422;28;20045;-81
2022/01/09 01:00:23;;;;;;;12.63;7.40;;;4.70;99.90;;;;;;5036050;28;20129;-80
2022/01/09 01:02:49;;;;;;;13.40;8.27;;;4.70;99.90;;;;;;5035981;28;20035;-80
2022/01/09 01:05:15;;;;;;;10.88;7.38;;;4.70;99.90;;;;;;5018495;28;20493;-80
2022/01/09 01:07:41;;;;;;;12.98;7.90;;;4.70;99.90;;;;;;5035714;28;20045;-81
2022/01/09 01:10:07;;;;;;;11.68;7.40;;;4.70;99.90;;;;;;5017943;28;20045;-80
2022/01/09 01:12:33;;;;;;;12.77;7.80;;;4.70;99.90;;;;;;5035824;28;20037;-80
2022/01/09 01:15:00;;;;;;;10.32;7.65;;;4.70;99.90;;;;;;5018210;28;20041;-80
2022/01/09 01:17:26;;;;;;;10.60;7.13;;;4.70;99.90;;;;;;5018190;28;20081;-80
2022/01/09 01:19:53;;;;;;;12.52;7.45;;;4.70;99.90;;;;;;5035704;28;20528;-80
2022/01/09 01:22:19;;;;;;;12.50;7.57;;;4.70;99.90;;;;;;5017761;28;20132;-80
2022/01/09 01:24:46;;;;;;;9.82;6.50;;;4.70;99.90;;;;;;5017823;28;20124;-80
2022/01/09 01:27:12;;;;;;;11.45;7.15;;;4.70;99.90;;;;;;5018035;28;20056;-80
2022/01/09 01:29:38;;;;;;;11.43;6.88;;;4.70;99.90;;;;;;5017653;28;20049;-80
2022/01/09 01:32:05;;;;;;;11.82;6.78;;;4.70;99.90;;;;;;5017908;28;20128;-81
2022/01/09 01:34:33;;;;;;;11.10;6.72;;;4.70;99.90;;;;;;5035191;28;20064;-81
2022/01/09 01:36:59;;;;;;;12.63;6.32;;;4.70;99.90;;;;;;5017465;28;20053;-81
2022/01/09 01:39:24;;;;;;;11.30;6.80;;;4.70;99.90;;;;;;5034410;28;20099;-81
2022/01/09 01:41:50;;;;;;;12.27;6.85;;;4.70;99.90;;;;;;5035280;28;20046;-81
2022/01/09 01:44:16;;;;;;;14.10;6.88;;;4.70;99.90;;;;;;5035210;28;20507;-81
2022/01/09 01:46:41;;;;;;;13.13;6.97;;;4.70;99.90;;;;;;5035156;28;20044;-81
2022/01/09 01:49:11;;;;;;;10.85;6.38;;;4.70;99.90;;;;;;5034837;28;20053;-81
2022/01/09 01:51:39;;;;;;;11.23;7.10;;;4.70;99.90;;;;;;5035466;28;20053;-81
2022/01/09 01:54:06;;;;;;;13.77;6.63;;;4.80;99.90;;;;;;5017203;28;20053;-81
2022/01/09 01:56:31;;;;;;;14.52;7.80;;;4.70;99.90;;;;;;5017508;28;20041;-81
2022/01/09 01:58:57;;;;;;;10.95;6.38;;;4.70;99.90;;;;;;5017230;28;20136;-81
2022/01/09 02:01:23;;;;;;;13.60;6.30;;;4.70;99.90;;;;;;5034786;28;20099;-81
2022/01/09 02:03:48;;;;;;;14.10;6.28;;;4.80;99.90;;;;;;5034557;28;20040;-81
2022/01/09 02:06:14;;;;;;;21.65;5.80;;;4.80;99.90;;;;;;5034617;28;20088;-81
2022/01/09 02:08:44;;;;;;;36.22;4.55;;;4.80;99.90;;;;;;5017155;28;20120;-81
2022/01/09 02:11:11;;;;;;;34.75;4.32;;;5.10;99.90;;;;;;5034894;28;20045;-81
2022/01/09 02:13:40;;;;;;;27.13;4.97;;;5.30;99.90;;;;;;5017316;28;20045;-82
2022/01/09 02:16:06;;;;;;;31.83;4.15;;;5.50;99.90;;;;;;5034574;28;20049;-82
2022/01/09 02:18:31;;;;;;;30.23;4.25;;;5.70;99.90;;;;;;5034765;28;20133;-82
2022/01/09 02:20:57;;;;;;;31.83;4.15;;;5.70;99.90;;;;;;5016996;28;20135;-81
2022/01/09 02:23:23;;;;;;;28.35;3.33;;;5.80;99.90;;;;;;5016717;28;20092;-80
2022/01/09 02:25:50;;;;;;;24.38;4.78;;;5.80;99.90;;;;;;5034337;28;20124;-79
2022/01/09 02:28:18;;;;;;;16.10;3.35;;;5.80;99.90;;;;;;5034367;28;20042;-79
2022/01/09 02:30:44;;;;;;;27.23;4.97;;;5.90;99.90;;;;;;5016466;28;20041;-79
2022/01/09 02:33:14;;;;;;;31.40;3.45;;;6.00;99.90;;;;;;5017216;28;20408;-81
2022/01/09 02:35:40;;;;;;;17.20;2.30;;;6.00;99.90;;;;;;5016393;28;20042;-81
2022/01/09 02:38:06;;;;;;;30.38;3.53;;;6.10;99.90;;;;;;5016473;28;20053;-82
2022/01/09 02:40:33;;;;;;;20.60;3.10;;;6.10;99.90;;;;;;5034208;28;20062;-81
2022/01/09 02:42:59;;;;;;;18.88;5.50;;;6.10;99.90;;;;;;5034100;28;20045;-81
2022/01/09 02:45:27;;;;;;;15.68;2.40;;;6.10;99.90;;;;;;5016514;28;20435;-81
2022/01/09 02:47:55;;;;;;;25.17;5.20;;;6.10;99.90;;;;;;5016457;28;20045;-81
2022/01/09 02:52:50;;;;;;;26.30;4.43;;;6.20;99.90;;;;;;5016459;28;20508;-80
2022/01/09 02:55:17;;;;;;;21.25;3.85;;;6.10;99.90;;;;;;5016538;28;20130;-80
2022/01/09 02:57:59;;;;;;;22.00;4.43;;;6.10;99.90;;;;;;5033771;28;20120;-80
2022/01/09 03:00:30;;;;;;;27.40;3.78;;;6.10;99.90;;;;;;5033999;28;20050;-80
2022/01/09 03:02:56;;;;;;;38.97;6.28;;;6.20;99.90;;;;;;5016177;28;20045;-80
2022/01/09 03:05:23;;;;;;;40.55;6.15;;;6.30;99.90;;;;;;5016333;28;20068;-80
2022/01/09 03:07:49;;;;;;;54.80;9.00;;;6.40;99.90;;;;;;5016006;28;20420;-80
2022/01/09 03:10:17;;;;;;;34.72;5.72;;;6.40;99.90;;;;;;5015965;28;20046;-81
2022/01/09 03:12:43;;;;;;;31.48;5.55;;;6.50;99.90;;;;;;5015845;28;20053;-81
2022/01/09 03:15:09;;;;;;;30.88;5.53;;;6.50;99.90;;;;;;5016178;28;20135;-81
2022/01/09 03:17:35;;;;;;;34.25;6.47;;;6.60;99.90;;;;;;5015652;28;20393;-81
2022/01/09 03:20:01;;;;;;;41.15;7.65;;;6.60;99.90;;;;;;5015977;28;20463;-81
2022/01/09 03:22:26;;;;;;;34.28;6.75;;;6.70;99.90;;;;;;5015769;28;20540;-81
2022/01/09 03:24:52;;;;;;;38.13;5.28;;;6.70;99.90;;;;;;5033595;28;20136;-80
2022/01/09 03:27:18;;;;;;;23.73;5.15;;;6.70;99.90;;;;;;5015801;28;20050;-80
2022/01/09 03:29:44;;;;;;;30.80;5.20;;;6.70;99.90;;;;;;5016526;28;20046;-81
2022/01/09 03:32:10;;;;;;;40.30;7.55;;;6.70;99.90;;;;;;5033523;28;20091;-80
2022/01/09 03:34:36;;;;;;;26.35;5.90;;;6.70;99.90;;;;;;5015805;28;20396;-80
2022/01/09 03:37:03;;;;;;;42.20;5.82;;;6.70;99.90;;;;;;5033440;28;20046;-80
2022/01/09 03:39:28;;;;;;;33.88;5.70;;;6.70;99.90;;;;;;5015836;28;20397;-80
2022/01/09 03:41:56;;;;;;;39.80;6.90;;;6.70;99.90;;;;;;5015645;28;20076;-80
2022/01/09 03:44:22;;;;;;;29.67;5.88;;;6.70;99.90;;;;;;5015594;28;20049;-80
2022/01/09 03:46:48;;;;;;;28.02;5.20;;;6.70;99.90;;;;;;5015598;28;20103;-80
2022/01/09 03:49:14;;;;;;;23.55;3.92;;;6.70;99.90;;;;;;5015154;28;20053;-81
2022/01/09 03:51:41;;;;;;;29.58;5.68;;;6.70;99.90;;;;;;5015931;28;20049;-81
2022/01/09 03:54:07;;;;;;;30.90;4.40;;;6.70;99.90;;;;;;5033332;28;20038;-81
2022/01/09 03:56:33;;;;;;;28.77;5.28;;;6.70;99.90;;;;;;5015451;28;20191;-81
2022/01/09 03:58:59;;;;;;;31.38;5.40;;;6.70;99.90;;;;;;5033331;28;20045;-81
2022/01/09 04:01:25;;;;;;;32.85;5.38;;;6.70;99.90;;;;;;5017002;28;20116;-81
2022/01/09 04:03:51;;;;;;;24.73;4.55;;;6.70;99.90;;;;;;5019464;28;20511;-81
2022/01/09 04:06:17;;;;;;;34.30;5.15;;;6.60;99.90;;;;;;5037036;28;20091;-81
2022/01/09 04:08:43;;;;;;;23.83;6.03;;;6.70;99.90;;;;;;5019031;28;20484;-81
2022/01/09 04:11:10;;;;;;;22.35;4.22;;;6.70;99.90;;;;;;5019072;28;20061;-81
2022/01/09 04:13:38;;;;;;;26.15;4.65;;;6.70;99.90;;;;;;5036814;28;20054;-81
2022/01/09 04:16:04;;;;;;;27.20;3.95;;;6.70;99.90;;;;;;5019362;28;20056;-81
2022/01/09 04:18:31;;;;;;;40.65;5.05;;;6.60;99.90;;;;;;5036881;28;20041;-81
2022/01/09 04:20:58;;;;;;;36.85;4.78;;;6.70;99.90;;;;;;5019228;28;20059;-81
2022/01/09 04:23:25;;;;;;;22.00;4.38;;;6.70;99.90;;;;;;5036529;28;20370;-81
2022/01/09 04:25:51;;;;;;;28.38;4.43;;;6.70;99.90;;;;;;5019180;28;20046;-81
2022/01/09 04:28:18;;;;;;;28.38;6.18;;;6.70;99.90;;;;;;5018806;28;20554;-81
2022/01/09 04:30:44;;;;;;;41.40;5.95;;;6.60;99.90;;;;;;5018827;28;20492;-81
2022/01/09 04:33:10;;;;;;;22.60;3.78;;;6.70;99.90;;;;;;5019051;28;20139;-81
2022/01/09 04:35:37;;;;;;;29.65;4.88;;;6.70;99.90;;;;;;5036393;28;20042;-80
2022/01/09 04:38:03;;;;;;;25.63;4.13;;;6.70;99.90;;;;;;5018560;28;20049;-80
2022/01/09 04:40:29;;;;;;;30.63;4.78;;;6.70;99.90;;;;;;5018587;28;20132;-81
2022/01/09 04:42:58;;;;;;;29.15;5.18;;;6.70;99.90;;;;;;5018727;28;20133;-81
2022/01/09 04:45:26;;;;;;;32.85;4.63;;;6.60;99.90;;;;;;5036381;28;20060;-81
2022/01/09 04:47:55;;;;;;;29.58;4.70;;;6.70;99.90;;;;;;5036369;28;20037;-81
2022/01/09 04:50:27;;;;;;;26.92;3.65;;;6.70;99.90;;;;;;5018076;28;20049;-79
2022/01/09 04:53:00;;;;;;;24.25;4.35;;;6.60;99.90;;;;;;5036265;28;20060;-78
2022/01/09 04:55:30;;;;;;;24.95;3.92;;;6.70;99.90;;;;;;5018429;28;20049;-78
2022/01/09 04:57:56;;;;;;;31.38;3.95;;;6.60;99.90;;;;;;5036154;28;20048;-81
2022/01/09 05:00:22;;;;;;;23.13;4.85;;;6.70;99.90;;;;;;5018338;28;20033;-81
2022/01/09 05:02:48;;;;;;;31.33;4.78;;;6.60;99.90;;;;;;5035807;28;20099;-80
2022/01/09 05:05:14;;;;;;;26.23;3.75;;;6.60;99.90;;;;;;5018065;28;20041;-81
2022/01/09 05:07:40;;;;;;;20.52;3.55;;;6.60;99.90;;;;;;5018019;28;20496;-80
2022/01/09 05:10:08;;;;;;;27.85;5.88;;;6.60;99.90;;;;;;5035834;28;20041;-80
2022/01/09 05:12:33;;;;;;;23.40;3.50;;;6.60;99.90;;;;;;5018108;28;20057;-80
2022/01/09 05:15:00;;;;;;;17.40;2.80;;;6.60;99.90;;;;;;5035739;28;20045;-80
2022/01/09 05:17:25;;;;;;;15.77;2.50;;;6.60;99.90;;;;;;5035522;28;20045;-80
2022/01/09 05:19:53;;;;;;;18.88;4.60;;;6.70;99.90;;;;;;5035712;28;20053;-80
2022/01/09 05:22:19;;;;;;;18.75;2.25;;;6.60;99.90;;;;;;5035567;28;20049;-80
2022/01/09 05:24:45;;;;;;;21.50;3.78;;;6.60;99.90;;;;;;5017847;28;20046;-80
2022/01/09 05:27:10;;;;;;;21.55;3.63;;;6.60;99.90;;;;;;5035601;28;20041;-80
2022/01/09 05:29:36;;;;;;;15.43;2.85;;;6.60;99.90;;;;;;5017688;28;20091;-80
2022/01/09 05:32:03;;;;;;;25.92;4.00;;;6.60;99.90;;;;;;5017739;28;20057;-80
2022/01/09 05:34:28;;;;;;;22.88;3.50;;;6.60;99.90;;;;;;5018229;28;20049;-80
2022/01/09 05:36:54;;;;;;;24.27;3.55;;;6.60;99.90;;;;;;5017799;28;20060;-80
2022/01/09 05:39:19;;;;;;;24.48;3.83;;;6.60;99.90;;;;;;5035308;28;20428;-80
2022/01/09 05:41:46;;;;;;;21.20;3.53;;;6.60;99.90;;;;;;5035068;28;20041;-80
2022/01/09 05:44:12;;;;;;;18.00;4.20;;;6.60;99.90;;;;;;5017709;28;20045;-80
2022/01/09 05:46:38;;;;;;;29.85;3.90;;;6.50;99.90;;;;;;5017307;28;20046;-80
2022/01/09 05:49:04;;;;;;;24.08;3.53;;;6.60;99.90;;;;;;5017068;28;20099;-80
2022/01/09 05:51:29;;;;;;;19.83;2.55;;;6.50;99.90;;;;;;5017515;28;20124;-80
2022/01/09 05:53:58;;;;;;;18.73;3.30;;;6.50;99.90;;;;;;5035135;28;20431;-80
2022/01/09 05:56:23;;;;;;;26.27;3.83;;;6.60;99.90;;;;;;5017378;28;20400;-80
2022/01/09 05:58:49;;;;;;;22.15;4.25;;;6.50;99.90;;;;;;5034901;28;20045;-80
2022/01/09 06:01:14;;;;;;;15.70;2.72;;;6.50;99.90;;;;;;5035014;28;20060;-80
2022/01/09 06:03:40;;;;;;;19.42;2.92;;;6.40;99.90;;;;;;5034941;28;20053;-80
2022/01/09 06:06:07;;;;;;;27.60;3.38;;;6.40;99.90;;;;;;5017302;28;20057;-80
2022/01/09 06:08:33;;;;;;;15.40;3.08;;;6.40;99.90;;;;;;5016985;28;20405;-80
2022/01/09 06:10:59;;;;;;;17.42;3.45;;;6.40;99.90;;;;;;5034775;28;20053;-80
2022/01/09 06:13:24;;;;;;;28.48;5.03;;;6.50;99.90;;;;;;5034594;28;20140;-81
2022/01/09 06:15:50;;;;;;;16.25;3.25;;;6.50;99.90;;;;;;5017009;28;20045;-80
2022/01/09 06:18:22;;;;;;;24.08;3.60;;;6.50;99.90;;;;;;5034961;28;20037;-81
2022/01/09 06:20:48;;;;;;;20.67;3.20;;;6.50;99.90;;;;;;5034624;28;20049;-80
2022/01/09 06:23:16;;;;;;;17.83;3.35;;;6.50;99.90;;;;;;5016896;28;20077;-80
2022/01/09 06:25:41;;;;;;;10.73;2.38;;;6.40;99.90;;;;;;5016706;28;20124;-80
2022/01/09 06:28:08;;;;;;;14.75;3.33;;;6.40;99.90;;;;;;5016500;28;20124;-80
2022/01/09 06:30:34;;;;;;;15.13;2.50;;;6.40;99.90;;;;;;5016467;28;20045;-80
2022/01/09 06:33:00;;;;;;;22.20;2.58;;;6.40;99.90;;;;;;5034385;28;20041;-80
2022/01/09 06:35:25;;;;;;;10.50;2.38;;;6.40;99.90;;;;;;5016811;28;20397;-78
2022/01/09 06:37:51;;;;;;;24.58;5.25;;;6.40;99.90;;;;;;5016712;28;20374;-78
2022/01/09 06:40:17;;;;;;;15.82;2.83;;;6.40;99.90;;;;;;5016333;28;20501;-78
2022/01/09 06:42:42;;;;;;;18.75;2.63;;;6.40;99.90;;;;;;5016698;28;20037;-78
2022/01/09 06:45:08;;;;;;;13.38;2.92;;;6.40;99.90;;;;;;5034148;28;20042;-78
2022/01/09 06:47:34;;;;;;;19.40;3.00;;;6.40;99.90;;;;;;5016264;28;20041;-77
2022/01/09 06:50:00;;;;;;;18.33;3.00;;;6.40;99.90;;;;;;5016063;28;20076;-77
2022/01/09 06:52:25;;;;;;;17.10;2.90;;;6.40;99.90;;;;;;5016297;28;20128;-78
2022/01/09 06:54:51;;;;;;;15.40;1.83;;;6.40;99.90;;;;;;5016575;28;20049;-78
2022/01/09 06:57:17;;;;;;;12.68;2.50;;;6.40;99.90;;;;;;5033649;28;20064;-78
2022/01/09 06:59:43;;;;;;;16.98;3.08;;;6.40;99.90;;;;;;5016042;28;20092;-77
2022/01/09 07:02:08;;;;;;;17.00;3.95;;;6.40;99.90;;;;;;5016036;28;20138;-77
2022/01/09 07:04:34;;;;;;;24.60;3.85;;;6.40;99.90;;;;;;5015986;28;20076;-77
2022/01/09 07:07:00;;;;;;;21.45;2.97;;;6.30;99.90;;;;;;5016123;28;20053;-77
2022/01/09 07:09:25;;;;;;;29.73;5.10;;;6.40;99.90;;;;;;5033718;28;20045;-77
2022/01/09 07:11:51;;;;;;;17.58;2.58;;;6.40;99.90;;;;;;5033707;28;20041;-77
2022/01/09 07:14:17;;;;;;;21.52;2.90;;;6.40;99.90;;;;;;5015799;28;20037;-77
2022/01/09 07:16:42;;;;;;;21.42;2.67;;;6.40;99.90;;;;;;5033726;28;20060;-77
2022/01/09 07:19:08;;;;;;;12.30;2.78;;;6.30;99.90;;;;;;5033825;28;20128;-77
2022/01/09 07:21:34;;;;;;;19.48;3.58;;;6.30;99.90;;;;;;5033632;28;20037;-77
2022/01/09 07:24:02;;;;;;;20.80;2.10;;;6.30;99.90;;;;;;5015772;28;20056;-77
2022/01/09 07:26:27;;;;;;;12.07;2.85;;;6.20;99.90;;;;;;5033526;28;20055;-77
2022/01/09 07:28:53;;;;;;;16.85;2.33;;;6.20;99.90;;;;;;5015863;28;20474;-77
2022/01/09 07:31:19;;;;;;;19.13;3.65;;;6.10;99.90;;;;;;5015959;28;20386;-77
2022/01/09 07:33:44;;;;;;;19.02;2.47;;;6.10;99.90;;;;;;5016006;28;20064;-77
2022/01/09 07:36:15;;;;;;;12.38;2.45;;;6.10;99.90;;;;;;5016733;28;20049;-77
2022/01/09 07:38:40;;;;;;;21.05;2.47;;;6.10;99.90;;;;;;5037553;28;20065;-77
2022/01/09 07:41:08;;;;;;;11.73;2.00;;;6.20;99.90;;;;;;5037397;28;20370;-78
2022/01/09 07:43:34;;;;;;;16.40;2.65;;;6.10;99.90;;;;;;5037354;28;20116;-77
2022/01/09 07:46:02;;;;;;;14.40;2.53;;;6.10;99.90;;;;;;5037115;28;20518;-77
2022/01/09 07:48:28;;;;;;;21.30;3.08;;;6.00;99.90;;;;;;5036857;28;20041;-77
2022/01/09 07:50:55;;;;;;;17.50;2.42;;;6.00;99.90;;;;;;5036353;28;20049;-77
2022/01/09 07:53:23;;;;;;;10.00;2.20;;;6.00;99.90;;;;;;5036560;28;20085;-77
2022/01/09 07:55:52;;;;;;;16.55;3.80;;;6.00;99.90;;;;;;5036747;28;20503;-77
2022/01/09 07:58:20;;;;;;;15.18;1.90;;;6.00;99.90;;;;;;5019327;28;20120;-78
2022/01/09 08:00:53;;;;;;;15.20;2.88;;;5.90;99.90;;;;;;5037027;28;20049;-78
2022/01/09 08:03:24;;;;;;;15.98;2.47;;;5.80;99.90;;;;;;5019027;28;20038;-78
2022/01/09 08:05:50;;;;;;;10.00;2.30;;;5.80;99.90;;;;;;5019264;28;20061;-77
2022/01/09 08:08:15;;;;;;;22.08;3.72;;;5.80;99.90;;;;;;5036608;28;20046;-77
2022/01/09 08:10:41;;;;;;;15.43;2.38;;;5.90;99.90;;;;;;5036946;28;20069;-78
2022/01/09 08:13:07;;;;;;;16.98;2.75;;;5.80;99.90;;;;;;5019508;28;20050;-77
2022/01/09 08:15:32;;;;;;;14.70;2.40;;;5.80;99.90;;;;;;5036616;28;20095;-77
2022/01/09 08:17:58;;;;;;;16.67;2.60;;;5.80;99.90;;;;;;5019118;28;20088;-77
2022/01/09 08:20:24;;;;;;;22.13;4.00;;;5.80;99.90;;;;;;5018803;28;20056;-77
2022/01/09 08:22:50;;;;;;;9.23;2.13;;;5.80;99.90;;;;;;5038769;28;20048;-77
2022/01/09 08:25:18;;;;;;;13.52;2.40;;;5.90;99.90;;;;;;5024104;28;20056;-76
2022/01/09 08:27:45;;;;;;;13.32;2.05;;;6.00;99.90;;;;;;5036329;28;20057;-76
2022/01/09 08:30:12;;;;;;;16.02;2.40;;;5.90;99.90;;;;;;5018710;28;20053;-76
2022/01/09 08:32:39;;;;;;;15.73;1.67;;;6.00;99.90;;;;;;5036466;28;20091;-76
2022/01/09 08:35:06;;;;;;;12.52;2.50;;;6.00;99.90;;;;;;5036019;28;20378;-76
2022/01/09 08:37:32;;;;;;;17.75;2.22;;;5.90;99.90;;;;;;5018441;28;20041;-76
2022/01/09 08:39:58;;;;;;;19.52;2.53;;;5.90;99.90;;;;;;5036022;28;20543;-76
2022/01/09 08:42:24;;;;;;;14.88;2.03;;;5.90;99.90;;;;;;5018244;28;20485;-76
2022/01/09 08:44:49;;;;;;;15.93;1.95;;;5.80;99.90;;;;;;5018368;28;20049;-76
2022/01/09 08:47:15;;;;;;;16.00;3.35;;;5.80;99.90;;;;;;5017569;28;20449;-78
2022/01/09 08:49:41;;;;;;;14.45;2.13;;;5.80;99.90;;;;;;5017702;28;20060;-76
2022/01/09 08:52:08;;;;;;;16.83;2.22;;;5.70;99.90;;;;;;5018296;28;20046;-77
2022/01/09 08:54:34;;;;;;;21.88;3.40;;;5.70;99.90;;;;;;5018208;28;20489;-76
2022/01/09 08:57:00;;;;;;;27.20;4.30;;;5.60;99.90;;;;;;5017965;28;20052;-77
2022/01/09 08:59:28;;;;;;;17.90;2.80;;;5.60;99.90;;;;;;5035610;28;20115;-77
2022/01/09 09:02:01;;;;;;;19.20;3.45;;;5.60;99.90;;;;;;5035740;28;20049;-77
2022/01/09 09:04:27;;;;;;;14.18;3.13;;;5.60;99.90;;;;;;5035738;28;20053;-77
2022/01/09 09:06:52;;;;;;;17.80;2.30;;;5.60;99.90;;;;;;5035824;28;20051;-76
2022/01/09 09:09:18;;;;;;;16.23;3.00;;;5.60;99.90;;;;;;5035364;28;20095;-76
2022/01/09 09:11:44;;;;;;;16.00;2.38;;;5.60;99.90;;;;;;5035362;28;20049;-76
2022/01/09 09:14:10;;;;;;;10.00;2.72;;;5.60;99.90;;;;;;5029366;28;20064;-76
2022/01/09 09:16:35;;;;;;;13.23;3.80;;;5.60;99.90;;;;;;5048062;28;20080;-76
2022/01/09 09:19:01;;;;;;;13.52;2.08;;;5.60;99.90;;;;;;5037565;28;20040;-77
2022/01/09 09:21:37;;;;;;;;;;;;;;;;;;;;;
2022/01/09 09:24:06;;;;;;;10.77;2.08;;;5.70;99.90;;;;;;5034362;28;20075;-77
2022/01/09 09:26:32;;;;;;;12.88;1.63;;;5.70;99.90;;;;;;5037042;28;20131;-76
2022/01/09 09:28:57;;;;;;;16.40;2.47;;;5.80;99.90;;;;;;5054336;28;20137;-77
2022/01/09 09:31:25;;;;;;;15.27;2.40;;;5.80;99.90;;;;;;5039156;28;20077;-78
2022/01/09 09:33:51;;;;;;;18.65;2.28;;;5.80;99.90;;;;;;5040135;28;20044;-76
2022/01/09 09:36:17;;;;;;;13.82;1.63;;;5.80;99.90;;;;;;5041798;28;20122;-76
2022/01/09 09:38:42;;;;;;;15.73;2.67;;;5.80;99.90;;;;;;5039345;28;20485;-76
2022/01/09 09:41:08;;;;;;;19.67;3.45;;;5.80;99.90;;;;;;5042845;28;20044;-76
2022/01/09 09:43:34;;;;;;;10.23;2.25;;;5.70;99.90;;;;;;5054808;28;20090;-76
2022/01/09 09:46:00;;;;;;;11.82;2.00;;;5.70;99.90;;;;;;5053855;28;20622;-76
2022/01/09 09:48:26;;;;;;;20.30;3.00;;;5.70;99.90;;;;;;5054535;28;20122;-76
2022/01/09 09:50:55;;;;;;;20.20;2.42;;;5.70;99.90;;;;;;5053709;28;20057;-77
2022/01/09 09:53:21;;;;;;;12.48;3.22;;;5.70;99.90;;;;;;5054437;28;20515;-76
2022/01/09 09:55:51;;;;;;;14.20;2.30;;;5.70;99.90;;;;;;5040475;28;20045;-76
2022/01/09 09:58:16;;;;;;;18.45;2.15;;;5.80;99.90;;;;;;5054216;28;20040;-76
2022/01/09 10:00:43;;;;;;;15.82;2.55;;;5.80;99.90;;;;;;5039201;28;20400;-76
2022/01/09 10:03:09;;;;;;;9.48;1.65;;;5.80;99.90;;;;;;5040971;28;20041;-76
2022/01/09 10:05:37;;;;;;;21.40;2.33;;;5.70;99.90;;;;;;5054072;28;20045;-76
2022/01/09 10:08:07;;;;;;;19.35;3.30;;;5.80;99.90;;;;;;5054181;28;20067;-77
2022/01/09 10:10:34;;;;;;;16.42;2.80;;;5.80;99.90;;;;;;5038518;28;20487;-77
2022/01/09 10:13:10;;;;;;;10.77;1.60;;;5.90;99.90;;;;;;5041905;28;20124;-77
2022/01/09 10:15:51;;;;;;;20.45;2.30;;;5.90;99.90;;;;;;5038380;28;20051;-77
2022/01/09 10:18:38;;;;;;;14.80;2.25;;;5.90;99.90;;;;;;5054022;28;20488;-76
2022/01/09 10:21:26;;;;;;;11.60;2.05;;;6.00;99.90;;;;;;5038372;28;20102;-77
2022/01/09 10:24:04;;;;;;;13.88;1.80;;;6.10;99.90;;;;;;5039487;28;20389;-77
2022/01/09 10:26:33;;;;;;;14.80;2.83;;;6.20;99.90;;;;;;5054205;28;20090;-76
2022/01/09 10:28:59;;;;;;;8.32;2.03;;;6.30;99.90;;;;;;5041252;28;20045;-76
2022/01/09 10:31:26;;;;;;;14.68;2.40;;;6.30;99.90;;;;;;5037960;28;20408;-76
2022/01/09 10:34:05;;;;;;;13.50;2.05;;;6.40;99.90;;;;;;5053119;28;20057;-76
2022/01/09 10:36:35;;;;;;;25.77;2.67;;;6.40;99.90;;;;;;5053911;28;20106;-76
2022/01/09 10:39:10;;;;;;;19.00;2.35;;;6.50;99.90;;;;;;5041512;28;20411;-76
2022/01/09 10:41:51;;;;;;;17.13;2.92;;;6.50;99.90;;;;;;5053749;28;20045;-77
2022/01/09 10:44:19;;;;;;;12.32;2.15;;;6.50;99.90;;;;;;5053376;28;20089;-76
2022/01/09 10:46:56;;;;;;;14.45;2.47;;;6.50;99.90;;;;;;5046242;28;20124;-76
2022/01/09 10:49:22;;;;;;;15.25;2.55;;;6.60;99.90;;;;;;5052682;28;20110;-76
2022/01/09 10:51:48;;;;;;;16.83;2.47;;;6.60;99.90;;;;;;5053557;28;20131;-76
2022/01/09 10:54:30;;;;;;;10.80;2.17;;;6.60;99.90;;;;;;5053663;28;20064;-76
2022/01/09 10:57:13;;;;;;;12.50;2.22;;;6.60;99.90;;;;;;5052732;28;20610;-77
2022/01/09 10:59:39;;;;;;;13.50;1.85;;;6.50;99.90;;;;;;5053134;28;20049;-77
2022/01/09 11:02:05;;;;;;;16.58;2.42;;;6.50;99.90;;;;;;5051568;28;20052;-77
2022/01/09 11:04:31;;;;;;;13.70;1.70;;;6.50;99.90;;;;;;5053294;28;20052;-77
2022/01/09 11:06:58;;;;;;;18.23;2.70;;;6.40;99.90;;;;;;5053627;28;20033;-77
2022/01/09 11:09:26;;;;;;;14.73;2.72;;;6.40;99.90;;;;;;5053382;28;20045;-78
2022/01/09 11:11:52;;;;;;;12.32;1.80;;;6.30;99.90;;;;;;5053158;28;20523;-77
2022/01/09 11:14:21;;;;;;;16.33;2.05;;;6.30;99.90;;;;;;5053409;28;20045;-77
2022/01/09 11:16:54;;;;;;;14.60;2.90;;;6.30;99.90;;;;;;5053573;28;20123;-77
2022/01/09 11:19:25;;;;;;;17.02;2.85;;;6.20;99.90;;;;;;5053600;28;20045;-78
2022/01/09 11:22:01;;;;;;;14.60;2.08;;;6.20;99.90;;;;;;5053493;28;20045;-78
2022/01/09 11:24:49;;;;;;;21.85;2.90;;;6.20;99.90;;;;;;5053589;28;20040;-77
2022/01/09 11:27:24;;;;;;;15.10;2.75;;;6.30;99.90;;;;;;5050486;28;20557;-77
2022/01/09 11:30:00;;;;;;;10.77;1.80;;;6.30;99.90;;;;;;5043151;28;20132;-77
2022/01/09 11:32:44;;;;;;;11.90;2.03;;;6.30;99.90;;;;;;5035711;28;20045;-77
2022/01/09 11:35:45;;;;;;;19.58;2.90;;;6.30;99.90;;;;;;5037611;28;20084;-77
2022/01/09 11:38:14;;;;;;;13.13;2.20;;;6.40;99.90;;;;;;5052613;28;20044;-77
2022/01/09 11:40:45;;;;;;;13.00;2.95;;;6.50;99.90;;;;;;5048638;28;20072;-77
2022/01/09 11:43:14;;;;;;;11.45;1.98;;;6.60;99.90;;;;;;5046298;28;20048;-77
2022/01/09 11:45:46;;;;;;;12.90;1.77;;;6.70;99.90;;;;;;5031489;28;20049;-76
2022/01/09 11:48:13;;;;;;;12.20;2.85;;;6.70;99.90;;;;;;5014889;28;20072;-76
2022/01/09 11:51:07;;;;;;;12.30;2.60;;;6.80;99.90;;;;;;5015087;28;20092;-77
2022/01/09 11:53:51;;;;;;;;;;;7.00;99.90;;;;;;5015486;28;20061;-77
2022/01/09 11:56:44;;;;;;;19.60;2.25;;;7.20;99.90;;;;;;5032734;28;19921;-77
2022/01/09 11:59:25;;;;;;;11.05;3.70;;;7.30;99.90;;;;;;5018082;28;20058;-77
2022/01/09 12:01:58;;;;;;;11.02;3.38;;;7.40;99.90;;;;;;5035256;28;20083;-77
2022/01/09 12:04:33;;;;;;;7.05;1.33;;;7.40;99.90;;;;;;5052878;28;20067;-77
2022/01/09 12:07:16;;;;;;;25.13;2.97;;;7.40;99.90;;;;;;5053120;28;20045;-77
2022/01/09 12:09:46;;;;;;;16.65;2.60;;;7.50;99.90;;;;;;5034810;28;20489;-77
2022/01/09 12:12:16;;;;;;;14.80;2.25;;;7.40;99.90;;;;;;5052999;28;20042;-76
2022/01/09 12:14:41;;;;;;;12.05;2.75;;;7.40;99.90;;;;;;5034877;28;20060;-77
2022/01/09 12:17:26;;;;;;;18.30;3.47;;;7.30;99.90;;;;;;5035225;28;20049;-77
2022/01/09 12:20:08;;;;;;;17.35;2.22;;;7.40;99.90;;;;;;5052836;28;20084;-77
2022/01/09 12:22:46;;;;;;;22.17;3.45;;;7.40;99.90;;;;;;5036502;28;20480;-77
2022/01/09 12:25:30;;;;;;;12.18;3.03;;;7.40;99.90;;;;;;5038510;28;20052;-77
2022/01/09 12:28:05;;;;;;;12.73;2.05;;;7.40;99.90;;;;;;5038471;28;20036;-77
2022/01/09 12:30:44;;;;;;;12.43;2.08;;;7.40;99.90;;;;;;5038316;28;20411;-77
2022/01/09 12:33:16;;;;;;;13.38;2.65;;;7.40;99.90;;;;;;5056020;28;20403;-77
2022/01/09 12:35:45;;;;;;;15.93;2.72;;;7.30;99.90;;;;;;5038575;28;20041;-77
2022/01/09 12:38:19;;;;;;;14.15;2.08;;;7.20;99.90;;;;;;5038267;28;20052;-77
2022/01/09 12:40:45;;;;;;;11.25;2.20;;;7.20;99.90;;;;;;5038569;28;20055;-77
2022/01/09 12:43:13;;;;;;;18.55;2.38;;;7.20;99.90;;;;;;5056206;28;20082;-77
2022/01/09 12:45:43;;;;;;;12.40;2.15;;;7.10;99.90;;;;;;5038147;28;20052;-77
2022/01/09 12:48:27;;;;;;;21.58;3.83;;;7.10;99.90;;;;;;5038037;28;20055;-77
2022/01/09 12:50:54;;;;;;;14.50;2.47;;;7.00;99.90;;;;;;5037997;28;20056;-77
2022/01/09 12:53:29;;;;;;;14.18;1.85;;;6.90;99.90;;;;;;5055824;28;20106;-77
2022/01/09 12:56:02;;;;;;;9.05;1.77;;;6.90;99.90;;;;;;5037938;28;20041;-77